Shalersville, Ohio
Current Conditions -  °F | °C
As of 1:58 PM on Friday 24 Oct 2014 (Local Time) from KPOV Reporting Station
Clear Clear  
Wind Chill: 58°   Ceiling: Unl
Heat Index: 58°   Visibility: 10mi
Dew Point: 36°   Wind: 6mph
Humidity: 44%   Direction: 240°WSW
Pressure: 30.05"   Gusts: NA
Location:  41.2966°N, 81.2269°W
Report Text: KPOV 241758Z AUTO 24005KT 10SM CLR 15/02 A3005 RMK AO2 T01460023
Loading
Personal Weather Stations






























Interactive Weather Map
Tropical Storm Tracking
New forecast layout! Learn more

10-Day Weather Forecast

Advertisements
Track Severe Weather on mobile